createdAt,value
2022-11-14T15:02:56.752Z,13.93
2022-11-14T15:05:46.824Z,13.80
2022-11-14T15:14:42.184Z,13.35
2022-11-14T15:20:31.948Z,13.12
2022-11-14T15:30:02.451Z,12.83
2022-11-14T15:33:04.306Z,12.75
2022-11-14T15:39:12.718Z,12.54
2022-11-14T15:45:21.340Z,12.22
2022-11-14T15:48:14.126Z,12.08
2022-11-14T15:54:39.330Z,11.82
2022-11-14T15:57:40.297Z,11.69
2022-11-14T16:00:29.577Z,11.59
2022-11-14T16:03:18.128Z,11.55
2022-11-14T16:06:04.490Z,11.52
2022-11-14T16:08:50.619Z,11.45
2022-11-14T16:11:36.647Z,11.36
2022-11-14T16:14:25.798Z,11.26
2022-11-14T16:23:32.408Z,11.00
2022-11-14T16:26:18.122Z,11.00
2022-11-14T16:32:03.449Z,10.89
2022-11-14T16:34:52.534Z,10.86
2022-11-14T16:37:44.034Z,10.83
2022-11-14T16:40:29.731Z,10.77
2022-11-14T16:43:15.017Z,10.68
2022-11-14T16:46:02.623Z,10.56
2022-11-14T16:48:47.786Z,10.47
2022-11-14T16:51:48.673Z,10.38
2022-11-14T16:54:35.651Z,10.38
2022-11-14T16:57:21.049Z,10.38
2022-11-14T17:00:07.007Z,10.40
2022-11-14T17:02:52.349Z,10.47
2022-11-14T17:05:42.371Z,10.54
2022-11-14T17:08:27.712Z,10.61
2022-11-14T17:11:14.885Z,10.63
2022-11-14T17:14:00.311Z,10.58
2022-11-14T17:16:45.999Z,10.51
2022-11-14T17:19:31.317Z,10.44
2022-11-14T17:22:17.569Z,10.43
2022-11-14T17:25:02.932Z,10.46
2022-11-14T17:27:49.661Z,10.51
2022-11-14T17:30:34.490Z,10.55
2022-11-14T17:33:19.868Z,10.59
2022-11-14T17:36:06.016Z,10.60
2022-11-14T17:38:51.619Z,10.56
2022-11-14T17:41:36.947Z,10.53
2022-11-14T17:44:23.350Z,10.55
2022-11-14T17:47:08.605Z,10.57
2022-11-14T17:49:53.486Z,10.57
2022-11-14T17:52:38.550Z,10.54
